createdAt,value
2018-09-01T00:00:19.386Z,21.74
2018-09-01T00:01:19.293Z,21.73
2018-09-01T00:02:19.923Z,21.74
2018-09-01T00:03:19.361Z,21.74
2018-09-01T00:04:19.150Z,21.74
2018-09-01T00:05:19.336Z,21.73
2018-09-01T00:06:19.137Z,21.72
2018-09-01T00:07:19.683Z,21.7
2018-09-01T00:08:19.459Z,21.72
2018-09-01T00:09:19.259Z,21.73
2018-09-01T00:10:19.464Z,21.74
2018-09-01T00:11:20.032Z,21.72
2018-09-01T00:12:19.422Z,21.74
2018-09-01T00:13:19.125Z,21.7
2018-09-01T00:14:19.294Z,21.72
2018-09-01T00:15:19.216Z,21.73
2018-09-01T00:16:19.406Z,21.72
2018-09-01T00:17:19.404Z,21.73
2018-09-01T00:18:19.310Z,21.74
2018-09-01T00:19:19.650Z,21.73
2018-09-01T00:20:19.247Z,21.72
2018-09-01T00:21:19.277Z,21.74
2018-09-01T00:22:19.372Z,21.73
2018-09-01T00:23:19.487Z,21.72
2018-09-01T00:24:19.122Z,21.7
2018-09-01T00:25:19.261Z,21.72
2018-09-01T00:26:19.412Z,21.72
2018-09-01T00:27:19.411Z,21.73
2018-09-01T00:28:19.617Z,21.74
2018-09-01T00:29:19.372Z,21.73
2018-09-01T00:30:19.541Z,21.74
2018-09-01T00:31:19.722Z,21.72
2018-09-01T00:32:19.480Z,21.74
2018-09-01T00:33:19.626Z,21.73
2018-09-01T00:34:19.260Z,21.73
2018-09-01T00:35:19.345Z,21.73
2018-09-01T00:36:19.321Z,21.74
2018-09-01T00:37:19.660Z,21.7
2018-09-01T00:38:19.537Z,21.72
2018-09-01T00:39:19.096Z,21.74
2018-09-01T00:40:19.230Z,21.7
2018-09-01T00:41:19.271Z,21.74
2018-09-01T00:42:19.439Z,21.74
2018-09-01T00:43:19.399Z,21.73
2018-09-01T00:44:19.250Z,21.74
2018-09-01T00:45:19.408Z,21.73
2018-09-01T00:46:19.355Z,21.74
2018-09-01T00:47:19.538Z,21.75
2018-09-01T00:48:19.563Z,21.72
2018-09-01T00:49:19.399Z,21.7
2018-09-01T00:50:19.255Z,21.73
2018-09-01T00:51:19.117Z,21.74
2018-09-01T00:52:19.145Z,21.7
2018-09-01T00:53:19.354Z,21.7
2018-09-01T00:54:19.304Z,21.72
2018-09-01T00:55:19.226Z,21.7
2018-09-01T00:56:19.300Z,21.72
2018-09-01T00:57:19.320Z,21.73
2018-09-01T00:58:19.467Z,21.73
2018-09-01T00:59:19.211Z,21.73
2018-09-01T01:00:19.157Z,21.72
2018-09-01T01:01:19.240Z,21.7
2018-09-01T01:02:19.309Z,21.72
2018-09-01T01:03:19.334Z,21.7
2018-09-01T01:04:19.480Z,21.72
2018-09-01T01:05:19.490Z,21.72
2018-09-01T01:06:19.567Z,21.73
2018-09-01T01:07:19.234Z,21.7
2018-09-01T01:08:19.147Z,21.72
2018-09-01T01:09:19.218Z,21.7
2018-09-01T01:10:19.213Z,21.7
2018-09-01T01:11:19.786Z,21.73
2018-09-01T01:12:19.599Z,21.7
2018-09-01T01:13:19.274Z,21.7
2018-09-01T01:14:19.305Z,21.7
2018-09-01T01:15:19.243Z,21.68
2018-09-01T01:16:19.424Z,21.7
2018-09-01T01:17:19.546Z,21.7
2018-09-01T01:18:19.446Z,21.7
2018-09-01T01:19:19.299Z,21.72
2018-09-01T01:20:19.535Z,21.7
2018-09-01T01:21:19.352Z,21.7
2018-09-01T01:22:19.255Z,21.7
2018-09-01T01:23:19.477Z,21.69
2018-09-01T01:24:19.358Z,21.7
2018-09-01T01:25:19.608Z,21.7
2018-09-01T01:26:19.442Z,21.72
2018-09-01T01:27:19.612Z,21.72
2018-09-01T01:28:19.467Z,21.69
2018-09-01T01:29:19.215Z,21.69
2018-09-01T01:30:19.372Z,21.72
2018-09-01T01:31:19.344Z,21.7
2018-09-01T01:32:19.251Z,21.7
2018-09-01T01:33:19.263Z,21.7
2018-09-01T01:34:19.168Z,21.69
2018-09-01T01:35:19.345Z,21.7
2018-09-01T01:36:19.370Z,21.7
2018-09-01T01:37:19.432Z,21.7
2018-09-01T01:38:19.250Z,21.7
2018-09-01T01:39:19.259Z,21.7
2018-09-01T01:40:19.369Z,21.7
2018-09-01T01:41:19.299Z,21.68
2018-09-01T01:42:19.225Z,21.69
2018-09-01T01:43:19.272Z,21.68
2018-09-01T01:44:19.251Z,21.69
2018-09-01T01:45:19.502Z,21.68
2018-09-01T01:46:19.373Z,21.7
2018-09-01T01:47:19.355Z,21.69
2018-09-01T01:48:19.444Z,21.68
2018-09-01T01:49:19.227Z,21.69
2018-09-01T01:50:19.254Z,21.68
2018-09-01T01:51:19.431Z,21.68
2018-09-01T01:52:19.651Z,21.69
2018-09-01T01:53:19.583Z,21.7
2018-09-01T01:54:19.098Z,21.68
2018-09-01T01:55:19.335Z,21.7
2018-09-01T01:56:19.270Z,21.7
2018-09-01T01:57:19.246Z,21.67
2018-09-01T01:58:19.253Z,21.69
2018-09-01T01:59:19.231Z,21.69
2018-09-01T02:00:19.327Z,21.7
2018-09-01T02:01:19.421Z,21.68
2018-09-01T02:02:19.331Z,21.69
2018-09-01T02:03:19.347Z,21.7
2018-09-01T02:04:19.469Z,21.67
2018-09-01T02:05:19.493Z,21.67
2018-09-01T02:06:19.081Z,21.69
2018-09-01T02:07:19.215Z,21.68
2018-09-01T02:08:19.299Z,21.67
2018-09-01T02:09:19.559Z,21.67
2018-09-01T02:10:19.265Z,21.68
2018-09-01T02:11:19.270Z,21.68
2018-09-01T02:12:19.256Z,21.67
2018-09-01T02:13:19.339Z,21.67
2018-09-01T02:14:19.282Z,21.66
2018-09-01T02:15:19.374Z,21.67
2018-09-01T02:16:19.265Z,21.68
2018-09-01T02:17:19.422Z,21.72
2018-09-01T02:18:19.127Z,21.69
2018-09-01T02:19:19.303Z,21.68
2018-09-01T02:20:19.247Z,21.68
2018-09-01T02:21:19.476Z,21.67
2018-09-01T02:22:19.160Z,21.67
2018-09-01T02:23:19.189Z,21.68
2018-09-01T02:24:19.207Z,21.69
2018-09-01T02:25:20.052Z,21.67
2018-09-01T02:26:19.290Z,21.69
2018-09-01T02:27:19.395Z,21.68
2018-09-01T02:28:19.268Z,21.67
2018-09-01T02:29:19.380Z,21.69
2018-09-01T02:30:19.252Z,21.69
2018-09-01T02:31:19.189Z,21.66
2018-09-01T02:32:19.362Z,21.68
2018-09-01T02:33:19.355Z,21.67
2018-09-01T02:34:19.563Z,21.66
2018-09-01T02:35:19.424Z,21.69
2018-09-01T02:36:19.550Z,21.67
2018-09-01T02:37:19.288Z,21.66
2018-09-01T02:38:19.127Z,21.66
2018-09-01T02:39:19.329Z,21.68
2018-09-01T02:40:19.295Z,21.69
2018-09-01T02:41:19.338Z,21.68
2018-09-01T02:42:19.188Z,21.69
2018-09-01T02:43:19.231Z,21.69
2018-09-01T02:44:19.322Z,21.68
2018-09-01T02:45:19.121Z,21.67
2018-09-01T02:46:19.318Z,21.65
2018-09-01T02:47:19.196Z,21.67
2018-09-01T02:48:19.330Z,21.68
2018-09-01T02:49:19.138Z,21.65
2018-09-01T02:50:19.429Z,21.66
2018-09-01T02:51:19.243Z,21.67
2018-09-01T02:52:19.237Z,21.66
2018-09-01T02:53:19.519Z,21.67
2018-09-01T02:54:19.346Z,21.66
2018-09-01T02:55:19.562Z,21.65
2018-09-01T02:56:19.542Z,21.67
2018-09-01T02:57:19.382Z,21.67
2018-09-01T02:58:19.505Z,21.66
2018-09-01T02:59:19.589Z,21.66
2018-09-01T03:00:19.366Z,21.66
2018-09-01T03:01:19.573Z,21.64
2018-09-01T03:02:19.277Z,21.66
2018-09-01T03:03:19.369Z,21.66
2018-09-01T03:04:19.096Z,21.66
2018-09-01T03:05:19.380Z,21.65
2018-09-01T03:06:19.268Z,21.67
2018-09-01T03:07:19.355Z,21.65
2018-09-01T03:08:19.317Z,21.66
2018-09-01T03:09:19.226Z,21.67
2018-09-01T03:10:19.115Z,21.65
2018-09-01T03:11:19.244Z,21.66
2018-09-01T03:12:19.309Z,21.66
2018-09-01T03:13:19.054Z,21.66
2018-09-01T03:14:19.308Z,21.63
2018-09-01T03:15:19.307Z,21.65
2018-09-01T03:16:19.296Z,21.67
2018-09-01T03:17:19.213Z,21.67
2018-09-01T03:18:19.292Z,21.66
2018-09-01T03:19:19.250Z,21.64
2018-09-01T03:20:19.198Z,21.65
2018-09-01T03:21:19.301Z,21.66
2018-09-01T03:22:19.391Z,21.66
2018-09-01T03:23:19.399Z,21.66
2018-09-01T03:24:19.200Z,21.66
2018-09-01T03:25:19.310Z,21.65
2018-09-01T03:26:19.287Z,21.66
2018-09-01T03:27:19.377Z,21.67
2018-09-01T03:28:19.226Z,21.65
2018-09-01T03:29:19.354Z,21.64
2018-09-01T03:30:19.423Z,21.66
2018-09-01T03:31:19.548Z,21.65
2018-09-01T03:32:19.256Z,21.66
2018-09-01T03:33:19.069Z,21.68
2018-09-01T03:34:19.251Z,21.64
2018-09-01T03:35:19.211Z,21.65
2018-09-01T03:36:19.303Z,21.65
2018-09-01T03:37:19.566Z,21.66
2018-09-01T03:38:19.298Z,21.65
2018-09-01T03:39:19.454Z,21.66
2018-09-01T03:40:19.362Z,21.64
2018-09-01T03:41:19.186Z,21.65
2018-09-01T03:42:19.225Z,21.66
2018-09-01T03:43:19.226Z,21.66
2018-09-01T03:44:19.533Z,21.66
2018-09-01T03:45:19.716Z,21.65
2018-09-01T03:46:19.214Z,21.63
2018-09-01T03:47:19.577Z,21.66
2018-09-01T03:48:19.264Z,21.66
2018-09-01T03:49:19.177Z,21.63
2018-09-01T03:50:19.156Z,21.64
2018-09-01T03:51:19.177Z,21.65
2018-09-01T03:52:19.120Z,21.63
2018-09-01T03:53:19.123Z,21.62
2018-09-01T03:54:19.233Z,21.66
2018-09-01T03:55:19.267Z,21.65
2018-09-01T03:56:19.272Z,21.65
2018-09-01T03:57:19.376Z,21.65
2018-09-01T03:58:19.227Z,21.63
2018-09-01T03:59:19.166Z,21.63
2018-09-01T04:00:19.297Z,21.63
2018-09-01T04:01:19.224Z,21.63
2018-09-01T04:02:19.503Z,21.63
2018-09-01T04:03:19.289Z,21.63
2018-09-01T04:04:19.327Z,21.62
2018-09-01T04:05:19.347Z,21.63
2018-09-01T04:06:19.315Z,21.64
2018-09-01T04:07:19.391Z,21.65
2018-09-01T04:08:19.073Z,21.64
2018-09-01T04:09:19.188Z,21.63
2018-09-01T04:10:19.061Z,21.64
2018-09-01T04:11:19.332Z,21.64
2018-09-01T04:12:19.289Z,21.63
2018-09-01T04:13:19.477Z,21.64
2018-09-01T04:14:19.398Z,21.63
2018-09-01T04:15:19.388Z,21.64
2018-09-01T04:16:19.144Z,21.62
2018-09-01T04:17:19.093Z,21.63
2018-09-01T04:18:19.225Z,21.64
2018-09-01T04:19:19.257Z,21.63
2018-09-01T04:20:19.274Z,21.63
2018-09-01T04:21:19.291Z,21.63
2018-09-01T04:22:19.239Z,21.62
2018-09-01T04:23:19.215Z,21.64
2018-09-01T04:24:19.280Z,21.63
2018-09-01T04:25:19.212Z,21.63
2018-09-01T04:26:19.136Z,21.62
2018-09-01T04:27:19.554Z,21.64
2018-09-01T04:28:19.308Z,21.62
2018-09-01T04:29:19.179Z,21.61
2018-09-01T04:30:19.141Z,21.63
2018-09-01T04:31:19.302Z,21.62
2018-09-01T04:32:19.214Z,21.63
2018-09-01T04:33:19.309Z,21.63
2018-09-01T04:34:19.133Z,21.62
2018-09-01T04:35:19.213Z,21.64
2018-09-01T04:36:19.216Z,21.62
2018-09-01T04:37:19.204Z,21.63
2018-09-01T04:38:19.309Z,21.63
2018-09-01T04:39:19.174Z,21.63
2018-09-01T04:40:19.101Z,21.62
2018-09-01T04:41:19.143Z,21.63
2018-09-01T04:42:19.229Z,21.62
2018-09-01T04:43:19.224Z,21.62
2018-09-01T04:44:19.353Z,21.62
2018-09-01T04:45:19.329Z,21.63
2018-09-01T04:46:19.125Z,21.62
2018-09-01T04:47:19.410Z,21.63
2018-09-01T04:48:19.274Z,21.63
2018-09-01T04:49:19.161Z,21.62
2018-09-01T04:50:19.482Z,21.64
2018-09-01T04:51:19.291Z,21.63
2018-09-01T04:52:19.162Z,21.62
2018-09-01T04:53:19.216Z,21.59
2018-09-01T04:54:19.264Z,21.63
2018-09-01T04:55:19.599Z,21.63
2018-09-01T04:56:19.097Z,21.62
2018-09-01T04:57:19.188Z,21.62
2018-09-01T04:58:19.351Z,21.62
2018-09-01T04:59:19.313Z,21.62
2018-09-01T05:00:19.376Z,21.63
2018-09-01T05:01:19.654Z,21.62
2018-09-01T05:02:19.301Z,21.6
2018-09-01T05:03:19.163Z,21.61
2018-09-01T05:04:19.393Z,21.62
2018-09-01T05:05:19.544Z,21.6
2018-09-01T05:06:19.244Z,21.63
2018-09-01T05:07:19.438Z,21.61
2018-09-01T05:08:19.369Z,21.6
2018-09-01T05:09:19.608Z,21.63
2018-09-01T05:10:19.369Z,21.61
2018-09-01T05:11:19.225Z,21.6
2018-09-01T05:12:19.371Z,21.6
2018-09-01T05:13:19.360Z,21.61
2018-09-01T05:14:19.160Z,21.62
2018-09-01T05:15:19.374Z,21.62
2018-09-01T05:16:19.202Z,21.59
2018-09-01T05:17:19.250Z,21.62
2018-09-01T05:18:19.233Z,21.62
2018-09-01T05:19:19.200Z,21.6
2018-09-01T05:20:19.567Z,21.62
2018-09-01T05:21:19.144Z,21.6
2018-09-01T05:22:19.127Z,21.61
2018-09-01T05:23:19.346Z,21.61
2018-09-01T05:24:19.585Z,21.61
2018-09-01T05:25:19.356Z,21.61
2018-09-01T05:26:19.247Z,21.6
2018-09-01T05:27:19.270Z,21.6
2018-09-01T05:28:19.340Z,21.6
2018-09-01T05:29:19.358Z,21.63
2018-09-01T05:30:19.375Z,21.6
2018-09-01T05:31:19.416Z,21.59
2018-09-01T05:32:19.344Z,21.6
2018-09-01T05:33:19.335Z,21.6
2018-09-01T05:34:19.250Z,21.59
2018-09-01T05:35:19.555Z,21.6
2018-09-01T05:36:19.305Z,21.62
2018-09-01T05:37:19.293Z,21.6
2018-09-01T05:38:19.252Z,21.58
2018-09-01T05:39:19.132Z,21.61
2018-09-01T05:40:19.221Z,21.59
2018-09-01T05:41:19.386Z,21.59
2018-09-01T05:42:19.153Z,21.61
2018-09-01T05:43:19.206Z,21.59
2018-09-01T05:44:19.379Z,21.6
2018-09-01T05:45:19.225Z,21.59
2018-09-01T05:46:19.251Z,21.59
2018-09-01T05:47:19.077Z,21.59
2018-09-01T05:48:19.300Z,21.59
2018-09-01T05:49:19.214Z,21.6
2018-09-01T05:50:19.236Z,21.6
2018-09-01T05:51:19.238Z,21.59
2018-09-01T05:52:19.287Z,21.6
2018-09-01T05:53:19.329Z,21.58
2018-09-01T05:54:19.379Z,21.6
2018-09-01T05:55:19.224Z,21.57
2018-09-01T05:56:19.141Z,21.59
2018-09-01T05:57:19.134Z,21.58
2018-09-01T05:58:19.119Z,21.58
2018-09-01T05:59:19.272Z,21.59
2018-09-01T06:00:19.167Z,21.6
2018-09-01T06:01:19.261Z,21.59
2018-09-01T06:02:19.419Z,21.6
2018-09-01T06:03:19.297Z,21.62
2018-09-01T06:04:19.271Z,21.6
2018-09-01T06:05:19.181Z,21.55
2018-09-01T06:06:19.832Z,21.59
2018-09-01T06:07:19.230Z,21.57
2018-09-01T06:08:19.291Z,21.58
2018-09-01T06:09:19.519Z,21.59
2018-09-01T06:10:19.414Z,21.58
2018-09-01T06:11:19.792Z,21.59
2018-09-01T06:12:19.055Z,21.6
2018-09-01T06:13:19.702Z,21.55
2018-09-01T06:14:19.395Z,21.36
2018-09-01T06:15:19.201Z,21.2
2018-09-01T06:16:19.100Z,21.01
2018-09-01T06:17:19.346Z,20.86
2018-09-01T06:18:19.051Z,20.7
2018-09-01T06:19:19.908Z,20.6
2018-09-01T06:20:19.289Z,20.46
2018-09-01T06:21:19.256Z,20.37
2018-09-01T06:22:19.191Z,20.39
2018-09-01T06:23:19.149Z,20.24
2018-09-01T06:24:19.268Z,20.19
2018-09-01T06:25:19.271Z,20.16
2018-09-01T06:26:19.136Z,20.09
2018-09-01T06:27:19.181Z,19.97
2018-09-01T06:28:19.099Z,19.87
2018-09-01T06:29:19.309Z,19.83
2018-09-01T06:30:20.192Z,19.82
2018-09-01T06:31:19.158Z,19.74
2018-09-01T06:32:19.123Z,19.72
2018-09-01T06:33:19.131Z,19.7
2018-09-01T06:34:19.469Z,19.59
2018-09-01T06:35:19.334Z,19.6
2018-09-01T06:36:19.378Z,19.57
2018-09-01T06:37:19.377Z,19.53
2018-09-01T06:38:19.306Z,19.47
2018-09-01T06:39:19.182Z,19.46
2018-09-01T06:40:19.251Z,19.55
2018-09-01T06:41:19.153Z,19.56
2018-09-01T06:42:19.241Z,19.62
2018-09-01T06:43:19.215Z,19.67
2018-09-01T06:44:19.084Z,19.71
2018-09-01T06:45:19.233Z,19.76
2018-09-01T06:46:19.399Z,19.82
2018-09-01T06:47:19.145Z,19.87
2018-09-01T06:48:19.364Z,19.94
2018-09-01T06:49:19.302Z,19.96
2018-09-01T06:50:19.876Z,20.01
2018-09-01T06:51:19.459Z,20.05
2018-09-01T06:52:19.265Z,20.09
2018-09-01T06:53:19.514Z,20.12
2018-09-01T06:54:19.220Z,20.17
2018-09-01T06:55:19.158Z,20.17
2018-09-01T06:56:19.451Z,20.21
2018-09-01T06:57:19.490Z,20.27
2018-09-01T06:58:19.388Z,20.29
2018-09-01T06:59:19.154Z,20.31
2018-09-01T07:00:19.415Z,20.34
2018-09-01T07:01:19.182Z,20.37
2018-09-01T07:02:19.072Z,20.39
2018-09-01T07:03:19.316Z,20.4
2018-09-01T07:04:19.124Z,20.44
2018-09-01T07:05:19.245Z,20.45
2018-09-01T07:06:19.310Z,20.46
2018-09-01T07:07:19.149Z,20.47
2018-09-01T07:08:19.449Z,20.5
2018-09-01T07:09:19.169Z,20.54
2018-09-01T07:10:19.303Z,20.54
2018-09-01T07:11:19.201Z,20.56
2018-09-01T07:12:19.263Z,20.57
2018-09-01T07:13:19.043Z,20.59
2018-09-01T07:14:19.189Z,20.63
2018-09-01T07:15:19.298Z,20.61
2018-09-01T07:16:19.203Z,20.61
2018-09-01T07:17:19.258Z,20.64
2018-09-01T07:18:19.141Z,20.65
2018-09-01T07:19:19.271Z,20.66
2018-09-01T07:20:19.376Z,20.68
2018-09-01T07:21:19.331Z,20.68
2018-09-01T07:22:19.567Z,20.68
2018-09-01T07:23:19.134Z,20.71
2018-09-01T07:24:19.133Z,20.7
2018-09-01T07:25:19.349Z,20.72
2018-09-01T07:26:19.297Z,20.73
2018-09-01T07:27:19.217Z,20.75
2018-09-01T07:28:19.090Z,20.73
2018-09-01T07:29:19.211Z,20.76
2018-09-01T07:30:20.408Z,20.75
2018-09-01T07:31:22.802Z,20.76
2018-09-01T07:32:19.290Z,20.77
2018-09-01T07:33:19.122Z,20.78
2018-09-01T07:34:19.237Z,20.79
2018-09-01T07:35:19.459Z,20.8
2018-09-01T07:36:19.263Z,20.79
2018-09-01T07:37:19.301Z,20.79
2018-09-01T07:38:19.723Z,20.79
2018-09-01T07:39:19.116Z,20.79
2018-09-01T07:40:19.200Z,20.81
2018-09-01T07:41:19.339Z,20.81
2018-09-01T07:42:19.228Z,20.83
2018-09-01T07:43:19.253Z,20.83
2018-09-01T07:44:19.160Z,20.85
2018-09-01T07:45:19.456Z,20.85
2018-09-01T07:46:19.326Z,20.85
2018-09-01T07:47:19.148Z,20.85
2018-09-01T07:48:19.192Z,20.86
2018-09-01T07:49:19.255Z,20.89
2018-09-01T07:50:19.232Z,20.87
2018-09-01T07:51:19.270Z,20.88
2018-09-01T07:52:19.449Z,20.88
2018-09-01T07:53:19.028Z,20.87
2018-09-01T07:54:19.170Z,20.88
2018-09-01T07:55:19.267Z,20.89
2018-09-01T07:56:20.494Z,20.88
2018-09-01T07:57:19.322Z,20.87
2018-09-01T07:58:19.297Z,20.89
2018-09-01T07:59:19.278Z,20.9
2018-09-01T08:00:19.291Z,20.92
2018-09-01T08:01:19.454Z,20.91
2018-09-01T08:02:19.322Z,20.92
2018-09-01T08:03:19.260Z,20.92
2018-09-01T08:04:19.307Z,20.91
2018-09-01T08:05:19.378Z,20.93
2018-09-01T08:06:19.648Z,20.94
2018-09-01T08:07:19.550Z,20.93
2018-09-01T08:08:19.238Z,20.92
2018-09-01T08:09:19.226Z,20.93
2018-09-01T08:10:19.339Z,20.94
2018-09-01T08:11:19.327Z,20.95
2018-09-01T08:12:19.387Z,20.96
2018-09-01T08:13:19.209Z,20.92
2018-09-01T08:14:20.207Z,20.94
2018-09-01T08:15:19.199Z,20.96
2018-09-01T08:16:19.457Z,20.96
2018-09-01T08:17:19.073Z,20.96
2018-09-01T08:18:19.072Z,20.96
2018-09-01T08:19:19.347Z,20.95
2018-09-01T08:20:19.190Z,20.95
2018-09-01T08:21:19.333Z,20.94
2018-09-01T08:22:19.305Z,20.96
2018-09-01T08:23:19.029Z,20.95
2018-09-01T08:24:19.232Z,20.93
2018-09-01T08:25:19.414Z,20.96
2018-09-01T08:26:19.261Z,20.96
2018-09-01T08:27:19.168Z,20.98
2018-09-01T08:28:19.046Z,20.98
2018-09-01T08:29:19.082Z,20.96
2018-09-01T08:30:19.213Z,20.96
2018-09-01T08:31:19.506Z,20.95
2018-09-01T08:32:19.180Z,20.95
2018-09-01T08:33:19.042Z,20.96
2018-09-01T08:34:19.230Z,20.96
2018-09-01T08:35:19.227Z,20.98
2018-09-01T08:36:19.098Z,20.99
2018-09-01T08:37:19.331Z,20.99
2018-09-01T08:38:19.171Z,21
2018-09-01T08:39:19.402Z,21
2018-09-01T08:40:19.535Z,21
2018-09-01T08:41:19.279Z,21.01
2018-09-01T08:42:19.223Z,21.01
2018-09-01T08:43:19.441Z,21
2018-09-01T08:44:19.617Z,21
2018-09-01T08:45:19.595Z,21
2018-09-01T08:46:18.968Z,21.01
2018-09-01T08:47:19.164Z,20.98
2018-09-01T08:48:19.261Z,21
2018-09-01T08:49:19.363Z,21.01
2018-09-01T08:50:19.022Z,21.01
2018-09-01T08:51:19.305Z,21.01
2018-09-01T08:52:19.279Z,21.02
2018-09-01T08:53:19.325Z,21.01
2018-09-01T08:54:19.184Z,21
2018-09-01T08:55:19.337Z,21
2018-09-01T08:56:19.107Z,21
2018-09-01T08:57:19.321Z,21
2018-09-01T08:58:19.062Z,21
2018-09-01T08:59:19.186Z,21.02
2018-09-01T09:00:19.323Z,21.03
2018-09-01T09:01:19.221Z,21.03
2018-09-01T09:02:19.410Z,21.04
2018-09-01T09:03:19.162Z,21.02
2018-09-01T09:04:19.399Z,21.02
2018-09-01T09:05:19.425Z,21.02
2018-09-01T09:06:19.325Z,21.02
2018-09-01T09:07:19.215Z,21.02
2018-09-01T09:08:19.200Z,21.02
2018-09-01T09:09:19.208Z,21.02
2018-09-01T09:10:19.366Z,21.03
2018-09-01T09:11:19.308Z,21.01
2018-09-01T09:12:19.543Z,21.04
2018-09-01T09:13:19.178Z,21.02
2018-09-01T09:14:19.294Z,21.03
2018-09-01T09:15:19.207Z,21.02
2018-09-01T09:16:19.234Z,21.03
2018-09-01T09:17:19.223Z,21.04
2018-09-01T09:18:19.301Z,21.03
2018-09-01T09:19:19.078Z,21.02
2018-09-01T09:20:19.225Z,21.03
2018-09-01T09:21:19.281Z,21.02
2018-09-01T09:22:19.661Z,21.06
2018-09-01T09:23:19.101Z,21.04
2018-09-01T09:24:19.506Z,21.04
2018-09-01T09:25:19.136Z,21.06
2018-09-01T09:26:19.277Z,21.04
2018-09-01T09:27:19.231Z,21.04
2018-09-01T09:28:19.360Z,21.05
2018-09-01T09:29:19.267Z,21.06
2018-09-01T09:30:19.093Z,21.06
2018-09-01T09:31:19.121Z,21.06
2018-09-01T09:32:19.386Z,21.05
2018-09-01T09:33:19.100Z,21.04
2018-09-01T09:34:19.612Z,21.04
2018-09-01T09:35:19.413Z,21.07
2018-09-01T09:36:19.259Z,21.09
2018-09-01T09:37:19.109Z,21.05
2018-09-01T09:38:19.434Z,21.06
2018-09-01T09:39:19.061Z,21.06
2018-09-01T09:40:19.236Z,21.07
2018-09-01T09:41:19.145Z,21.07
2018-09-01T09:42:19.356Z,21.1
2018-09-01T09:43:19.084Z,21.07
2018-09-01T09:44:19.082Z,21.09
2018-09-01T09:45:19.134Z,21.09
2018-09-01T09:46:19.253Z,21.1
2018-09-01T09:47:19.137Z,21.13
2018-09-01T09:48:19.189Z,21.11
2018-09-01T09:49:19.124Z,21.09
2018-09-01T09:50:19.159Z,21.13
2018-09-01T09:51:19.090Z,21.13
2018-09-01T09:52:19.247Z,21.11
2018-09-01T09:53:19.211Z,21.09
2018-09-01T09:54:19.260Z,21.11
2018-09-01T09:55:19.243Z,21.15
2018-09-01T09:56:19.181Z,21.24
2018-09-01T10:02:03.669Z,20.99
2018-09-01T10:09:57.643Z,20.84
2018-09-01T10:10:57.859Z,20.77
2018-09-01T10:11:57.645Z,20.68
2018-09-01T10:12:57.602Z,20.65
2018-09-01T10:13:58.060Z,20.63
2018-09-01T10:14:58.117Z,20.63
2018-09-01T10:15:58.373Z,20.61
2018-09-01T10:16:57.580Z,20.6
2018-09-01T10:17:57.482Z,20.6
2018-09-01T10:18:58.191Z,20.65
2018-09-01T10:19:57.971Z,20.63
2018-09-01T10:21:10.184Z,20.69
2018-09-01T10:22:10.113Z,20.76
2018-09-01T10:23:10.398Z,20.78
2018-09-01T10:24:10.150Z,20.81
2018-09-01T10:25:10.154Z,20.84
2018-09-01T10:26:10.437Z,20.85
2018-09-01T10:27:10.666Z,20.87
2018-09-01T10:28:10.479Z,20.9
2018-09-01T10:29:10.286Z,20.94
2018-09-01T10:30:10.322Z,20.94
2018-09-01T10:31:10.323Z,20.98
2018-09-01T10:32:10.180Z,20.98
2018-09-01T10:33:10.379Z,20.98
2018-09-01T10:34:10.377Z,21.02
2018-09-01T10:35:10.381Z,21.04
2018-09-01T10:36:10.248Z,21.03
2018-09-01T10:37:10.185Z,21.06
2018-09-01T10:38:10.236Z,21.06
2018-09-01T10:39:10.251Z,21.05
2018-09-01T10:40:10.502Z,21.1
2018-09-01T10:41:10.277Z,21.11
2018-09-01T10:42:10.295Z,21.13
2018-09-01T10:43:10.413Z,21.15
2018-09-01T10:44:10.415Z,21.13
2018-09-01T10:45:10.142Z,21.15
2018-09-01T10:46:10.612Z,21.17
2018-09-01T10:47:10.437Z,21.18
2018-09-01T10:48:10.383Z,21.2
2018-09-01T10:49:10.151Z,21.23
2018-09-01T10:50:10.507Z,21.25
2018-09-01T10:51:10.567Z,21.24
2018-09-01T10:52:10.594Z,21.22
2018-09-01T10:53:10.772Z,21.24
2018-09-01T10:54:10.432Z,21.24
2018-09-01T10:55:10.390Z,21.28
2018-09-01T10:56:10.289Z,21.29
2018-09-01T10:57:10.257Z,21.27
2018-09-01T10:58:10.322Z,21.28
2018-09-01T10:59:11.830Z,21.31
2018-09-01T11:00:10.274Z,21.3
2018-09-01T11:01:10.242Z,21.3
2018-09-01T11:02:10.238Z,21.29
2018-09-01T11:03:10.294Z,21.31
2018-09-01T11:04:10.287Z,21.32
2018-09-01T11:05:10.536Z,21.36
2018-09-01T11:06:10.285Z,21.36
2018-09-01T11:07:10.369Z,21.36
2018-09-01T11:08:10.432Z,21.36
2018-09-01T11:09:10.417Z,21.38
2018-09-01T11:10:10.684Z,21.38
2018-09-01T11:11:10.430Z,21.4
2018-09-01T11:12:10.537Z,21.42
2018-09-01T11:13:10.247Z,21.45
2018-09-01T11:14:10.951Z,21.45
2018-09-01T11:15:11.003Z,21.43
2018-09-01T11:16:10.373Z,21.44
2018-09-01T11:17:10.902Z,21.46
2018-09-01T11:18:10.347Z,21.44
2018-09-01T11:19:10.594Z,21.44
2018-09-01T11:20:10.682Z,21.44
2018-09-01T11:21:10.390Z,21.45
2018-09-01T11:22:10.603Z,21.45
2018-09-01T11:23:10.521Z,21.47
2018-09-01T11:24:10.482Z,21.44
2018-09-01T11:25:10.555Z,21.47
2018-09-01T11:26:10.390Z,21.49
2018-09-01T11:27:10.375Z,21.49
2018-09-01T11:28:11.045Z,21.52
2018-09-01T11:29:10.388Z,21.52
2018-09-01T11:30:10.274Z,21.5
2018-09-01T11:31:10.596Z,21.49
2018-09-01T11:32:10.463Z,21.51
2018-09-01T11:33:10.453Z,21.5
2018-09-01T11:34:10.488Z,21.49
2018-09-01T11:35:10.241Z,21.5
2018-09-01T11:36:10.764Z,21.49
2018-09-01T11:37:10.221Z,21.49
2018-09-01T11:38:10.418Z,21.51
2018-09-01T11:39:10.462Z,21.49
2018-09-01T11:40:10.377Z,21.49
2018-09-01T11:41:10.266Z,21.49
2018-09-01T11:42:10.312Z,21.49
2018-09-01T11:43:11.995Z,21.5
2018-09-01T11:44:10.350Z,21.5
2018-09-01T11:45:10.313Z,21.51
2018-09-01T11:46:10.169Z,21.48
2018-09-01T11:47:10.070Z,21.49
2018-09-01T11:48:10.353Z,21.46
2018-09-01T11:49:10.658Z,21.48
2018-09-01T11:50:10.622Z,21.47
2018-09-01T11:51:10.456Z,21.49
2018-09-01T11:52:10.551Z,21.47
2018-09-01T11:53:10.519Z,21.49
2018-09-01T11:54:10.452Z,21.48
2018-09-01T11:55:10.182Z,21.47
2018-09-01T11:56:10.220Z,21.48
2018-09-01T11:57:10.143Z,21.47
2018-09-01T11:58:10.282Z,21.47
2018-09-01T11:59:10.183Z,21.5
2018-09-01T12:00:10.439Z,21.49
2018-09-01T12:01:10.283Z,21.47
2018-09-01T12:02:10.632Z,21.47
2018-09-01T12:03:10.287Z,21.46
2018-09-01T12:04:10.501Z,21.46
2018-09-01T12:05:10.284Z,21.45
2018-09-01T12:06:10.375Z,21.44
2018-09-01T12:07:10.385Z,21.45
2018-09-01T12:08:10.262Z,21.45
2018-09-01T12:09:11.242Z,21.44
2018-09-01T12:10:10.318Z,21.45
2018-09-01T12:11:10.336Z,21.43
2018-09-01T12:12:10.470Z,21.42
2018-09-01T12:13:10.384Z,21.43
2018-09-01T12:14:10.311Z,21.42
2018-09-01T12:15:10.450Z,21.42
2018-09-01T12:16:10.168Z,21.42
2018-09-01T12:17:10.404Z,21.43
2018-09-01T12:18:10.392Z,21.4
2018-09-01T12:19:10.772Z,21.43
2018-09-01T12:20:10.369Z,21.38
2018-09-01T12:21:10.284Z,21.4
2018-09-01T12:22:10.524Z,21.39
2018-09-01T12:23:10.302Z,21.42
2018-09-01T12:24:10.225Z,21.39
2018-09-01T12:25:10.267Z,21.39
2018-09-01T12:26:10.481Z,21.39
2018-09-01T12:27:10.431Z,21.36
2018-09-01T12:28:10.465Z,21.39
2018-09-01T12:29:10.285Z,21.42
2018-09-01T12:30:10.458Z,21.43
2018-09-01T12:31:10.252Z,21.43
2018-09-01T12:32:10.309Z,21.46
2018-09-01T12:33:10.171Z,21.46
2018-09-01T12:34:10.400Z,21.48
2018-09-01T12:35:10.657Z,21.49
2018-09-01T12:36:10.283Z,21.49
2018-09-01T12:37:10.138Z,21.49
2018-09-01T12:38:10.278Z,21.53
2018-09-01T12:39:10.377Z,21.53
2018-09-01T12:40:10.453Z,21.52
2018-09-01T12:41:10.689Z,21.57
2018-09-01T12:42:11.066Z,21.55
2018-09-01T12:43:10.186Z,21.55
2018-09-01T12:44:10.169Z,21.57
2018-09-01T12:45:10.331Z,21.59
2018-09-01T12:46:10.476Z,21.58
2018-09-01T12:47:10.119Z,21.63
2018-09-01T12:48:10.596Z,21.62
2018-09-01T12:49:10.165Z,21.62
2018-09-01T12:50:10.330Z,21.63
2018-09-01T12:51:10.236Z,21.63
2018-09-01T12:52:10.375Z,21.65
2018-09-01T12:53:11.030Z,21.66
2018-09-01T12:54:10.305Z,21.67
2018-09-01T12:55:10.191Z,21.67
2018-09-01T12:56:10.237Z,21.65
2018-09-01T12:57:10.439Z,21.65
2018-09-01T12:58:10.324Z,21.69
2018-09-01T12:59:10.431Z,21.69
2018-09-01T13:00:10.328Z,21.7
2018-09-01T13:01:10.306Z,21.72
2018-09-01T13:02:10.157Z,21.73
2018-09-01T13:03:10.201Z,21.73
2018-09-01T13:04:10.825Z,21.74
2018-09-01T13:05:10.329Z,21.75
2018-09-01T13:06:10.509Z,21.75
2018-09-01T13:07:10.452Z,21.74
2018-09-01T13:08:10.591Z,21.75